Terminal Aerodrome Forecast
Issued by NWS

Home | Current Version | Previous Version | Text Only | Print | Product List | Glossary On
Versions: 1 2 3 4 5 6 7 8 9 10 11 12 13 14 15 16 17
179
FTUS43 KPAH 251120
TAFCGI
TAF
KCGI 251120Z 2512/2612 00000KT 2SM BR BCFG SCT003
     FM251300 23003KT P6SM SCT050
     FM260000 VRB03KT P6SM FEW050 BKN200
     FM260800 33009KT P6SM BKN035 PROB30 2608/2612 -SHRA=

USA.gov is the U.S. government's official web portal to all federal, state and local government web resources and services.